Jaime Gonzalez Airport
MUCF : now visible

Airfield :











YOU CAN JOIN US ON...

 
LOGIN :

Register | Disclaimer

   EN    FR    IT 

 









Legend :    VFR   Marginal VFR   IFR   Intensive IFR   Very Intensive IFR
Visi :
Ceiling :
>= 8 km
>= 3000ft
5 to 8 km
1000 to 3000 ft
1500m to 5 km
500 to 1000 ft
800 to 1500m
200 to 500 ft
< 800m
< 200 ft
Symbols :   Thunderstorms  Fog  Heavy snow  Heavy precipitations  Wind > 20 kt






- Airport Elevation : 102 ft
- IATA code : CFG


MUCF - Jaime Gonzalez

CURRENT METAR :
  • 131359Z AUTO 07004KT 360V100 29/25 Q1019

EXPIRED METARs :
  • 131259Z AUTO 05008KT 27/24 Q1019
  • 131159Z AUTO 06006KT 020V090 27/24 Q1019
  • 131059Z AUTO 07004KT 030V100 25/24 Q1019
  • 130959Z AUTO 05006KT 25/24 Q1018

TAF MUCF
Valid from the 13 at 12:00 until the 14 at 00:00 UTC


131100Z 1312/1324 09007KT 9000 SCT020
TEMPO 1318/1321 5000 TSRA FEW020CB BKN020
MUFH FIR / North America



MET'MAP, your aeronautical weather chart ! - Copyright ORBIFLY December 2007 - Disclaimer

ORBIFLY MET'MAP TEAM :

Programming & Development : Alexandra Zaïnal
Original concept : Baudouin d'Aumeries
Technical & hardware support : Manuel Goepfert
Assistance : Marc-Olivier Méhu




SOURCES & CREDITS :

   NOAA       Earth
Advisory